Capt. Jerry J. Wiltz — WDG4175 — position and weather

sailwx.info

Track history (hours):
 
Tides and Currents Weather Stations Pressure Air Temp Water Temp Dewpoint Dewpoint Depression Visibility Wind Speed Wind Dir Waves Ship Positions

Capt. Jerry J. Wiltz

Owner: Florida Marine, LLC, Mandeville, LA. More information available from US FCC via Universal Licensing System and Coast Guard Vessel Documentation Center.

Last reported at 2018-Jan-18 19:32 UTC. Time now 2018-Jan-21 08:40 UTC.
Position N 30°04' W 093°36'.

Length 27 m; draft 2.8 m.

Type: Towing. MMSI: 367533780.

Date/timePositionNaut miles runAvg speedWind from/ knotsBaromVisibWave heightAir tempDewpointWater temp
2018-Jan-18 19:32N 30°04' W 093°36'1 6.4
2018-Jan-18 19:19N 30°04' W 093°34'2 6.2
2018-Jan-18 19:00N 30°04' W 093°32'3 6.0
2018-Jan-18 18:30N 30°04' W 093°29'3 6.0
2018-Jan-18 18:00N 30°04' W 093°25'3 6.0
2018-Jan-18 17:30N 30°04' W 093°22'2 3.6
2018-Jan-18 17:00N 30°05' W 093°20'2 4.3
2018-Jan-18 16:30N 30°06' W 093°18'1 1.2
2018-Jan-18 16:00N 30°05' W 093°17'1 2.2
2018-Jan-18 15:30N 30°04' W 093°16'1 2.6
2018-Jan-18 15:00N 30°03' W 093°16'3 5.8
2018-Jan-18 14:30N 30°01' W 093°14'1 2.2
2018-Jan-18 14:00N 29°60' W 093°13'2 4.9
2018-Jan-18 13:30N 29°58' W 093°11'3 6.3
2018-Jan-18 13:00N 29°56' W 093°09'41 5.8
2018-Jan-18 05:52N 29°51' W 092°21'2 5.8
2018-Jan-18 05:27N 29°50' W 092°19'3 5.7
2018-Jan-18 05:00N 29°49' W 092°17'3 6.5
2018-Jan-18 04:30N 29°47' W 092°13'1 2.7
2018-Jan-18 04:00N 29°47' W 092°12'1 1.2
2018-Jan-18 03:30N 29°47' W 092°11'0 0.3
2018-Jan-18 03:00N 29°47' W 092°11'0 0.3
2018-Jan-18 02:30N 29°47' W 092°11'1 2.8
2018-Jan-18 02:00N 29°47' W 092°09'3 6.0
2018-Jan-18 01:30N 29°48' W 092°06'3 6.1
2018-Jan-18 01:00N 29°49' W 092°03'  
2018-Jan-11 00:47N 29°49' W 092°02'2 5.4
2018-Jan-11 00:29N 29°49' W 092°03'3 5.5
2018-Jan-11 00:00N 29°48' W 092°06'3 5.5
2018-Jan-10 23:30N 29°47' W 092°09'2 4.2
2018-Jan-10 23:00N 29°47' W 092°12'1 2.1
2018-Jan-10 22:30N 29°47' W 092°13'1 2.5
2018-Jan-10 22:00N 29°48' W 092°14'2 4.6
2018-Jan-10 21:30N 29°49' W 092°17'42 2.3
2018-Jan-10 03:29N 29°56' W 093°04'2 4.4
2018-Jan-10 03:00N 29°56' W 093°07'2 4.7
2018-Jan-10 02:30N 29°56' W 093°09'2 4.6
2018-Jan-10 02:00N 29°58' W 093°11'2 4.8
2018-Jan-10 01:30N 29°59' W 093°13'2 4.4
2018-Jan-10 01:00N 30°01' W 093°14'2 4.3
2018-Jan-10 00:30N 30°03' W 093°16'2 4.4
2018-Jan-10 00:00N 30°05' W 093°17'1 2.6
2018-Jan-09 23:30N 30°06' W 093°18'0 0.8
2018-Jan-09 23:00N 30°06' W 093°18'0 0.0
2018-Jan-09 22:30N 30°06' W 093°18'0 0.0
2018-Jan-09 22:00N 30°06' W 093°18'0 0.0
2018-Jan-09 21:30N 30°06' W 093°18'0 0.5
2018-Jan-09 21:00N 30°06' W 093°19'2 3.7
2018-Jan-09 20:30N 30°05' W 093°20'2 3.4
2018-Jan-09 20:00N 30°04' W 093°21'2 4.4
2018-Jan-09 19:30N 30°04' W 093°24'2 4.8
2018-Jan-09 19:00N 30°04' W 093°27'2 4.8
2018-Jan-09 18:30N 30°04' W 093°30'  
Track history (hours):
 
Tides and Currents Weather Stations Pressure Air Temp Water Temp Dewpoint Dewpoint Depression Visibility Wind Speed Wind Dir Waves Ship Positions

Capt. Jerry J. Wiltz

Owner: Florida Marine, LLC, Mandeville, LA. More information available from US FCC via Universal Licensing System and Coast Guard Vessel Documentation Center.

Last reported at 2018-Jan-18 19:32 UTC. Time now 2018-Jan-21 08:40 UTC.
Position N 30°04' W 093°36'.

Length 27 m; draft 2.8 m.

Type: Towing. MMSI: 367533780.

Date/timePositionNaut miles runAvg speedWind from/ knotsBaromVisibWave heightAir tempDewpointWater temp
2018-Jan-18 19:32N 30°04' W 093°36'1 6.4
2018-Jan-18 19:19N 30°04' W 093°34'2 6.2
2018-Jan-18 19:00N 30°04' W 093°32'3 6.0
2018-Jan-18 18:30N 30°04' W 093°29'3 6.0
2018-Jan-18 18:00N 30°04' W 093°25'3 6.0
2018-Jan-18 17:30N 30°04' W 093°22'2 3.6
2018-Jan-18 17:00N 30°05' W 093°20'2 4.3
2018-Jan-18 16:30N 30°06' W 093°18'1 1.2
2018-Jan-18 16:00N 30°05' W 093°17'1 2.2
2018-Jan-18 15:30N 30°04' W 093°16'1 2.6
2018-Jan-18 15:00N 30°03' W 093°16'3 5.8
2018-Jan-18 14:30N 30°01' W 093°14'1 2.2
2018-Jan-18 14:00N 29°60' W 093°13'2 4.9
2018-Jan-18 13:30N 29°58' W 093°11'3 6.3
2018-Jan-18 13:00N 29°56' W 093°09'41 5.8
2018-Jan-18 05:52N 29°51' W 092°21'2 5.8
2018-Jan-18 05:27N 29°50' W 092°19'3 5.7
2018-Jan-18 05:00N 29°49' W 092°17'3 6.5
2018-Jan-18 04:30N 29°47' W 092°13'1 2.7
2018-Jan-18 04:00N 29°47' W 092°12'1 1.2
2018-Jan-18 03:30N 29°47' W 092°11'0 0.3
2018-Jan-18 03:00N 29°47' W 092°11'0 0.3
2018-Jan-18 02:30N 29°47' W 092°11'1 2.8
2018-Jan-18 02:00N 29°47' W 092°09'3 6.0
2018-Jan-18 01:30N 29°48' W 092°06'3 6.1
2018-Jan-18 01:00N 29°49' W 092°03'  
2018-Jan-11 00:47N 29°49' W 092°02'2 5.4
2018-Jan-11 00:29N 29°49' W 092°03'3 5.5
2018-Jan-11 00:00N 29°48' W 092°06'3 5.5
2018-Jan-10 23:30N 29°47' W 092°09'2 4.2
2018-Jan-10 23:00N 29°47' W 092°12'1 2.1
2018-Jan-10 22:30N 29°47' W 092°13'1 2.5
2018-Jan-10 22:00N 29°48' W 092°14'2 4.6
2018-Jan-10 21:30N 29°49' W 092°17'42 2.3
2018-Jan-10 03:29N 29°56' W 093°04'2 4.4
2018-Jan-10 03:00N 29°56' W 093°07'2 4.7
2018-Jan-10 02:30N 29°56' W 093°09'2 4.6
2018-Jan-10 02:00N 29°58' W 093°11'2 4.8
2018-Jan-10 01:30N 29°59' W 093°13'2 4.4
2018-Jan-10 01:00N 30°01' W 093°14'2 4.3
2018-Jan-10 00:30N 30°03' W 093°16'2 4.4
2018-Jan-10 00:00N 30°05' W 093°17'1 2.6
2018-Jan-09 23:30N 30°06' W 093°18'0 0.8
2018-Jan-09 23:00N 30°06' W 093°18'0 0.0
2018-Jan-09 22:30N 30°06' W 093°18'0 0.0
2018-Jan-09 22:00N 30°06' W 093°18'0 0.0
2018-Jan-09 21:30N 30°06' W 093°18'0 0.5
2018-Jan-09 21:00N 30°06' W 093°19'2 3.7
2018-Jan-09 20:30N 30°05' W 093°20'2 3.4
2018-Jan-09 20:00N 30°04' W 093°21'2 4.4
2018-Jan-09 19:30N 30°04' W 093°24'2 4.8
2018-Jan-09 19:00N 30°04' W 093°27'2 4.8
2018-Jan-09 18:30N 30°04' W 093°30'  

Dump ship's entire track history